sensor_id;sensor_type;location;lat;lon;timestamp;pressure;altitude;pressure_sealevel;temperature;humidity
58534;BME280;44109;52.398;7.024;2023-02-26T00:01:38;101621.25;;;0.96;100.00
58534;BME280;44109;52.398;7.024;2023-02-26T00:04:07;101620.19;;;0.92;100.00
58534;BME280;44109;52.398;7.024;2023-02-26T00:06:37;101621.38;;;0.75;100.00
58534;BME280;44109;52.398;7.024;2023-02-26T00:09:18;101623.00;;;0.76;100.00
58534;BME280;44109;52.398;7.024;2023-02-26T00:11:47;101632.59;;;0.74;100.00
58534;BME280;44109;52.398;7.024;2023-02-26T00:14:15;101630.03;;;0.48;100.00
58534;BME280;44109;52.398;7.024;2023-02-26T00:16:46;101627.25;;;0.54;100.00
58534;BME280;44109;52.398;7.024;2023-02-26T00:19:21;101629.75;;;0.50;100.00
58534;BME280;44109;52.398;7.024;2023-02-26T00:21:50;101628.75;;;0.31;100.00
58534;BME280;44109;52.398;7.024;2023-02-26T00:24:19;101625.75;;;0.27;100.00
58534;BME280;44109;52.398;7.024;2023-02-26T00:26:47;101646.75;;;0.32;100.00
58534;BME280;44109;52.398;7.024;2023-02-26T00:29:15;101646.78;;;0.27;100.00
58534;BME280;44109;52.398;7.024;2023-02-26T00:31:43;101627.28;;;-0.06;100.00
58534;BME280;44109;52.398;7.024;2023-02-26T00:34:12;101643.91;;;-0.03;100.00
58534;BME280;44109;52.398;7.024;2023-02-26T00:36:44;101645.56;;;-0.12;100.00
58534;BME280;44109;52.398;7.024;2023-02-26T00:39:33;101649.34;;;-0.03;100.00
58534;BME280;44109;52.398;7.024;2023-02-26T00:42:07;101659.44;;;-0.03;100.00
58534;BME280;44109;52.398;7.024;2023-02-26T00:44:36;101663.28;;;-0.14;100.00
58534;BME280;44109;52.398;7.024;2023-02-26T00:47:11;101664.44;;;-0.36;100.00
58534;BME280;44109;52.398;7.024;2023-02-26T00:50:02;101665.50;;;-0.27;100.00
58534;BME280;44109;52.398;7.024;2023-02-26T00:52:43;101656.81;;;-0.39;100.00
58534;BME280;44109;52.398;7.024;2023-02-26T00:55:20;101657.63;;;-0.38;100.00
58534;BME280;44109;52.398;7.024;2023-02-26T00:57:48;101670.97;;;-0.47;100.00
58534;BME280;44109;52.398;7.024;2023-02-26T01:02:48;101651.13;;;-0.63;100.00
58534;BME280;44109;52.398;7.024;2023-02-26T01:05:18;101671.53;;;-0.50;100.00
58534;BME280;44109;52.398;7.024;2023-02-26T01:07:55;101663.34;;;-0.60;100.00
58534;BME280;44109;52.398;7.024;2023-02-26T01:10:33;101665.00;;;-0.54;100.00
58534;BME280;44109;52.398;7.024;2023-02-26T01:13:02;101662.84;;;-0.67;100.00
58534;BME280;44109;52.398;7.024;2023-02-26T01:15:31;101676.72;;;-0.64;100.00
58534;BME280;44109;52.398;7.024;2023-02-26T01:18:05;101674.81;;;-0.68;100.00
58534;BME280;44109;52.398;7.024;2023-02-26T01:20:43;101676.47;;;-0.72;100.00
58534;BME280;44109;52.398;7.024;2023-02-26T01:23:17;101676.72;;;-0.74;100.00
58534;BME280;44109;52.398;7.024;2023-02-26T01:25:53;101658.72;;;-0.95;100.00
58534;BME280;44109;52.398;7.024;2023-02-26T01:28:24;101667.72;;;-0.80;100.00
58534;BME280;44109;52.398;7.024;2023-02-26T01:30:56;101674.81;;;-0.79;100.00
58534;BME280;44109;52.398;7.024;2023-02-26T01:33:31;101668.81;;;-0.86;100.00
58534;BME280;44109;52.398;7.024;2023-02-26T01:36:08;101681.59;;;-0.91;100.00
58534;BME280;44109;52.398;7.024;2023-02-26T01:38:50;101680.50;;;-1.06;100.00
58534;BME280;44109;52.398;7.024;2023-02-26T01:41:30;101682.97;;;-0.94;100.00
58534;BME280;44109;52.398;7.024;2023-02-26T01:44:12;101677.00;;;-0.91;100.00
58534;BME280;44109;52.398;7.024;2023-02-26T01:46:57;101684.03;;;-1.00;100.00
58534;BME280;44109;52.398;7.024;2023-02-26T01:49:31;101686.75;;;-1.05;100.00
58534;BME280;44109;52.398;7.024;2023-02-26T01:52:00;101687.56;;;-1.05;100.00
58534;BME280;44109;52.398;7.024;2023-02-26T01:54:31;101679.41;;;-1.10;100.00
58534;BME280;44109;52.398;7.024;2023-02-26T01:57:04;101696.03;;;-1.11;100.00
58534;BME280;44109;52.398;7.024;2023-02-26T01:59:38;101687.56;;;-1.05;100.00
58534;BME280;44109;52.398;7.024;2023-02-26T02:02:09;101700.94;;;-1.03;100.00
58534;BME280;44109;52.398;7.024;2023-02-26T02:04:39;101694.63;;;-1.14;100.00
58534;BME280;44109;52.398;7.024;2023-02-26T02:07:09;101706.09;;;-1.22;100.00
58534;BME280;44109;52.398;7.024;2023-02-26T02:09:37;101711.47;;;-1.32;100.00
58534;BME280;44109;52.398;7.024;2023-02-26T02:12:19;101716.88;;;-1.42;100.00
58534;BME280;44109;52.398;7.024;2023-02-26T02:15:04;101716.88;;;-1.42;100.00
58534;BME280;44109;52.398;7.024;2023-02-26T02:17:44;101717.19;;;-1.34;100.00
58534;BME280;44109;52.398;7.024;2023-02-26T02:20:29;101725.06;;;-1.37;100.00
58534;BME280;44109;52.398;7.024;2023-02-26T02:23:16;101735.94;;;-1.37;100.00
58534;BME280;44109;52.398;7.024;2023-02-26T02:29:33;101725.88;;;-1.42;100.00
58534;BME280;44109;52.398;7.024;2023-02-26T02:32:35;101742.75;;;-1.40;100.00
58534;BME280;44109;52.398;7.024;2023-02-26T02:35:12;101738.38;;;-1.46;100.00
58534;BME280;44109;52.398;7.024;2023-02-26T02:37:47;101735.41;;;-1.44;100.00
58534;BME280;44109;52.398;7.024;2023-02-26T02:40:23;101733.47;;;-1.49;100.00
58534;BME280;44109;52.398;7.024;2023-02-26T02:42:56;101744.41;;;-1.34;100.00
58534;BME280;44109;52.398;7.024;2023-02-26T02:45:35;101744.91;;;-1.47;100.00
58534;BME280;44109;52.398;7.024;2023-02-26T02:48:14;101750.13;;;-1.40;100.00
58534;BME280;44109;52.398;7.024;2023-02-26T02:50:47;101757.69;;;-1.47;100.00
58534;BME280;44109;52.398;7.024;2023-02-26T02:53:22;101713.78;;;-1.71;100.00
58534;BME280;44109;52.398;7.024;2023-02-26T02:55:55;101760.75;;;-1.34;100.00
58534;BME280;44109;52.398;7.024;2023-02-26T02:58:30;101769.41;;;-1.42;100.00
58534;BME280;44109;52.398;7.024;2023-02-26T03:01:05;101773.19;;;-1.48;100.00
58534;BME280;44109;52.398;7.024;2023-02-26T03:03:42;101771.88;;;-1.40;100.00
58534;BME280;44109;52.398;7.024;2023-02-26T03:06:15;101775.91;;;-1.48;100.00
58534;BME280;44109;52.398;7.024;2023-02-26T03:08:45;101777.03;;;-1.44;100.00
58534;BME280;44109;52.398;7.024;2023-02-26T03:11:14;101779.72;;;-1.49;100.00
58534;BME280;44109;52.398;7.024;2023-02-26T03:13:42;101769.31;;;-1.62;100.00
58534;BME280;44109;52.398;7.024;2023-02-26T03:16:35;101785.00;;;-1.80;100.00
58534;BME280;44109;52.398;7.024;2023-02-26T03:19:20;101768.31;;;-1.93;100.00
58534;BME280;44109;52.398;7.024;2023-02-26T03:21:58;101773.47;;;-1.97;100.00
58534;BME280;44109;52.398;7.024;2023-02-26T03:24:34;101793.78;;;-1.67;100.00
58534;BME280;44109;52.398;7.024;2023-02-26T03:27:10;101803.31;;;-1.65;100.00
58534;BME280;44109;52.398;7.024;2023-02-26T03:29:49;101797.34;;;-1.62;100.00
58534;BME280;44109;52.398;7.024;2023-02-26T03:32:24;101798.34;;;-1.73;100.00
58534;BME280;44109;52.398;7.024;2023-02-26T03:35:03;101799.59;;;-1.91;100.00
58534;BME280;44109;52.398;7.024;2023-02-26T03:37:38;101809.94;;;-1.93;100.00
58534;BME280;44109;52.398;7.024;2023-02-26T03:40:11;101800.16;;;-1.89;100.00
58534;BME280;44109;52.398;7.024;2023-02-26T03:42:45;101786.25;;;-1.97;100.00
58534;BME280;44109;52.398;7.024;2023-02-26T03:45:21;101814.59;;;-1.88;100.00
58534;BME280;44109;52.398;7.024;2023-02-26T03:47:52;101816.81;;;-1.80;100.00
58534;BME280;44109;52.398;7.024;2023-02-26T03:50:28;101824.66;;;-1.89;100.00
58534;BME280;44109;52.398;7.024;2023-02-26T03:53:02;101824.66;;;-1.89;100.00
58534;BME280;44109;52.398;7.024;2023-02-26T03:55:35;101824.94;;;-1.85;100.00
58534;BME280;44109;52.398;7.024;2023-02-26T03:58:07;101828.44;;;-1.90;100.00
58534;BME280;44109;52.398;7.024;2023-02-26T04:00:36;101822.06;;;-2.06;100.00
58534;BME280;44109;52.398;7.024;2023-02-26T04:03:11;101811.38;;;-2.17;100.00
58534;BME280;44109;52.398;7.024;2023-02-26T04:05:47;101848.22;;;-1.99;100.00
58534;BME280;44109;52.398;7.024;2023-02-26T04:08:19;101851.47;;;-2.02;100.00
58534;BME280;44109;52.398;7.024;2023-02-26T04:10:52;101817.94;;;-2.13;100.00
58534;BME280;44109;52.398;7.024;2023-02-26T04:13:23;101855.59;;;-1.95;100.00
58534;BME280;44109;52.398;7.024;2023-02-26T04:15:51;101865.34;;;-1.99;100.00
58534;BME280;44109;52.398;7.024;2023-02-26T04:18:19;101866.91;;;-2.08;100.00
58534;BME280;44109;52.398;7.024;2023-02-26T04:20:48;101863.16;;;-2.02;100.00
58534;BME280;44109;52.398;7.024;2023-02-26T04:23:16;101882.03;;;-1.90;100.00
58534;BME280;44109;52.398;7.024;2023-02-26T04:25:44;101879.28;;;-1.90;100.00
58534;BME280;44109;52.398;7.024;2023-02-26T04:28:12;101877.41;;;-1.90;100.00
58534;BME280;44109;52.398;7.024;2023-02-26T04:30:40;101876.34;;;-1.84;100.00
58534;BME280;44109;52.398;7.024;2023-02-26T04:33:08;101883.16;;;-1.86;100.00
58534;BME280;44109;52.398;7.024;2023-02-26T04:35:35;101884.53;;;-1.79;100.00
58534;BME280;44109;52.398;7.024;2023-02-26T04:38:04;101885.09;;;-1.82;100.00
58534;BME280;44109;52.398;7.024;2023-02-26T04:40:32;101880.16;;;-1.85;100.00
58534;BME280;44109;52.398;7.024;2023-02-26T04:43:00;101883.41;;;-1.83;100.00
58534;BME280;44109;52.398;7.024;2023-02-26T04:45:28;101896.22;;;-1.78;100.00
58534;BME280;44109;52.398;7.024;2023-02-26T04:47:55;101895.22;;;-1.72;100.00
58534;BME280;44109;52.398;7.024;2023-02-26T04:50:23;101901.97;;;-1.74;100.00
58534;BME280;44109;52.398;7.024;2023-02-26T04:52:50;101908.53;;;-1.70;100.00
58534;BME280;44109;52.398;7.024;2023-02-26T04:55:20;101834.97;;;-2.23;100.00
58534;BME280;44109;52.398;7.024;2023-02-26T04:57:47;101919.44;;;-1.70;100.00
58534;BME280;44109;52.398;7.024;2023-02-26T05:00:15;101918.56;;;-1.76;100.00
58534;BME280;44109;52.398;7.024;2023-02-26T05:02:45;101927.31;;;-1.69;100.00
58534;BME280;44109;52.398;7.024;2023-02-26T05:05:12;101934.69;;;-1.64;100.00
58534;BME280;44109;52.398;7.024;2023-02-26T05:07:40;101937.06;;;-1.73;100.00
58534;BME280;44109;52.398;7.024;2023-02-26T05:10:09;101910.81;;;-1.94;100.00
58534;BME280;44109;52.398;7.024;2023-02-26T05:12:39;101945.50;;;-1.74;100.00
58534;BME280;44109;52.398;7.024;2023-02-26T05:15:07;101939.72;;;-1.83;100.00
58534;BME280;44109;52.398;7.024;2023-02-26T05:17:35;101946.06;;;-1.72;100.00
58534;BME280;44109;52.398;7.024;2023-02-26T05:20:04;101943.56;;;-1.79;100.00
58534;BME280;44109;52.398;7.024;2023-02-26T05:22:35;101948.59;;;-1.93;100.00
58534;BME280;44109;52.398;7.024;2023-02-26T05:25:04;101952.50;;;-1.84;100.00
58534;BME280;44109;52.398;7.024;2023-02-26T05:27:32;101933.03;;;-2.02;100.00
58534;BME280;44109;52.398;7.024;2023-02-26T05:30:02;101958.63;;;-1.98;100.00
58534;BME280;44109;52.398;7.024;2023-02-26T05:32:30;101941.44;;;-2.04;100.00
58534;BME280;44109;52.398;7.024;2023-02-26T05:34:57;101970.56;;;-1.99;100.00
58534;BME280;44109;52.398;7.024;2023-02-26T05:37:25;101967.31;;;-1.96;100.00
58534;BME280;44109;52.398;7.024;2023-02-26T05:39:53;101971.34;;;-2.04;100.00
58534;BME280;44109;52.398;7.024;2023-02-26T05:42:21;101978.16;;;-2.01;100.00
58534;BME280;44109;52.398;7.024;2023-02-26T05:44:50;101984.72;;;-1.97;100.00
58534;BME280;44109;52.398;7.024;2023-02-26T05:47:19;101985.03;;;-1.94;100.00
58534;BME280;44109;52.398;7.024;2023-02-26T05:49:47;101985.34;;;-1.90;100.00
58534;BME280;44109;52.398;7.024;2023-02-26T05:52:15;101979.75;;;-2.06;100.00
58534;BME280;44109;52.398;7.024;2023-02-26T05:54:42;101994.00;;;-1.93;100.00
58534;BME280;44109;52.398;7.024;2023-02-26T05:57:10;101998.69;;;-1.89;100.00
58534;BME280;44109;52.398;7.024;2023-02-26T05:59:38;101984.94;;;-2.04;100.00
58534;BME280;44109;52.398;7.024;2023-02-26T06:02:05;102007.88;;;-1.95;100.00
58534;BME280;44109;52.398;7.024;2023-02-26T06:04:35;102016.72;;;-2.05;100.00
58534;BME280;44109;52.398;7.024;2023-02-26T06:07:03;102019.81;;;-1.96;100.00
58534;BME280;44109;52.398;7.024;2023-02-26T06:09:31;102033.41;;;-1.96;100.00
58534;BME280;44109;52.398;7.024;2023-02-26T06:11:58;102032.34;;;-1.95;100.00
58534;BME280;44109;52.398;7.024;2023-02-26T06:14:26;102024.09;;;-2.00;100.00
58534;BME280;44109;52.398;7.024;2023-02-26T06:16:54;102030.91;;;-2.02;100.00
58534;BME280;44109;52.398;7.024;2023-02-26T06:19:22;102043.66;;;-2.03;100.00
58534;BME280;44109;52.398;7.024;2023-02-26T06:21:51;102043.09;;;-2.05;100.00
58534;BME280;44109;52.398;7.024;2023-02-26T06:24:18;102048.34;;;-1.98;100.00
58534;BME280;44109;52.398;7.024;2023-02-26T06:26:46;102043.78;;;-1.93;100.00
58534;BME280;44109;52.398;7.024;2023-02-26T06:29:14;102061.78;;;-1.87;100.00
58534;BME280;44109;52.398;7.024;2023-02-26T06:31:45;102059.53;;;-1.95;100.00
58534;BME280;44109;52.398;7.024;2023-02-26T06:34:13;102060.34;;;-1.94;100.00
58534;BME280;44109;52.398;7.024;2023-02-26T06:36:42;102040.94;;;-2.03;100.00
58534;BME280;44109;52.398;7.024;2023-02-26T06:39:11;102058.81;;;-1.85;100.00
58534;BME280;44109;52.398;7.024;2023-02-26T06:41:39;102076.06;;;-1.74;100.00
58534;BME280;44109;52.398;7.024;2023-02-26T06:44:07;102076.69;;;-1.67;100.00
58534;BME280;44109;52.398;7.024;2023-02-26T06:46:36;102084.03;;;-1.68;100.00
58534;BME280;44109;52.398;7.024;2023-02-26T06:49:03;102089.72;;;-1.69;100.00
58534;BME280;44109;52.398;7.024;2023-02-26T06:51:31;102098.91;;;-1.75;100.00
58534;BME280;44109;52.398;7.024;2023-02-26T06:53:59;102100.50;;;-1.80;100.00
58534;BME280;44109;52.398;7.024;2023-02-26T06:56:28;102100.91;;;-1.66;100.00
58534;BME280;44109;52.398;7.024;2023-02-26T06:58:56;102101.53;;;-1.59;100.00
58534;BME280;44109;52.398;7.024;2023-02-26T07:01:24;102113.34;;;-1.48;100.00
58534;BME280;44109;52.398;7.024;2023-02-26T07:03:52;102108.53;;;-1.41;100.00
58534;BME280;44109;52.398;7.024;2023-02-26T07:06:19;102102.97;;;-1.51;100.00
58534;BME280;44109;52.398;7.024;2023-02-26T07:08:47;102108.41;;;-1.51;100.00
58534;BME280;44109;52.398;7.024;2023-02-26T07:11:15;102110.56;;;-1.53;100.00
58534;BME280;44109;52.398;7.024;2023-02-26T07:13:44;102119.03;;;-1.22;100.00
58534;BME280;44109;52.398;7.024;2023-02-26T07:16:11;102118.38;;;-1.35;100.00
58534;BME280;44109;52.398;7.024;2023-02-26T07:18:39;102126.28;;;-1.33;100.00
58534;BME280;44109;52.398;7.024;2023-02-26T07:21:07;102132.94;;;-1.19;100.00
58534;BME280;44109;52.398;7.024;2023-02-26T07:23:35;102136.28;;;-1.12;100.00
58534;BME280;44109;52.398;7.024;2023-02-26T07:26:03;102132.75;;;-1.12;100.00
58534;BME280;44109;52.398;7.024;2023-02-26T07:28:30;102142.63;;;-1.01;100.00
58534;BME280;44109;52.398;7.024;2023-02-26T07:30:59;102145.34;;;-1.01;100.00
58534;BME280;44109;52.398;7.024;2023-02-26T07:33:27;102155.31;;;-0.85;100.00
58534;BME280;44109;52.398;7.024;2023-02-26T07:35:57;102139.28;;;-0.81;100.00
58534;BME280;44109;52.398;7.024;2023-02-26T07:38:24;102139.78;;;-0.84;100.00
58534;BME280;44109;52.398;7.024;2023-02-26T07:40:53;102134.53;;;-0.59;100.00
58534;BME280;44109;52.398;7.024;2023-02-26T07:43:22;102151.09;;;-0.23;100.00
58534;BME280;44109;52.398;7.024;2023-02-26T07:45:49;102160.97;;;-0.12;100.00
58534;BME280;44109;52.398;7.024;2023-02-26T07:48:19;102163.09;;;0.34;100.00
58534;BME280;44109;52.398;7.024;2023-02-26T07:50:46;102159.28;;;0.40;100.00
58534;BME280;44109;52.398;7.024;2023-02-26T07:53:18;102152.34;;;1.00;100.00
58534;BME280;44109;52.398;7.024;2023-02-26T07:55:47;102162.72;;;1.18;100.00
58534;BME280;44109;52.398;7.024;2023-02-26T07:58:15;102167.06;;;1.45;100.00
58534;BME280;44109;52.398;7.024;2023-02-26T08:00:43;102167.09;;;1.30;100.00
58534;BME280;44109;52.398;7.024;2023-02-26T08:03:11;102168.66;;;1.76;100.00
58534;BME280;44109;52.398;7.024;2023-02-26T08:05:41;102185.47;;;2.29;100.00
58534;BME280;44109;52.398;7.024;2023-02-26T08:08:09;102139.88;;;1.94;100.00
58534;BME280;44109;52.398;7.024;2023-02-26T08:10:37;102185.47;;;2.35;100.00
58534;BME280;44109;52.398;7.024;2023-02-26T08:13:06;102182.44;;;2.41;94.94
58534;BME280;44109;52.398;7.024;2023-02-26T08:15:34;102188.94;;;2.56;100.00
58534;BME280;44109;52.398;7.024;2023-02-26T08:18:02;102193.97;;;3.22;95.00
58534;BME280;44109;52.398;7.024;2023-02-26T08:20:30;102196.78;;;3.51;100.00
58534;BME280;44109;52.398;7.024;2023-02-26T08:22:59;102196.13;;;2.91;91.52
58534;BME280;44109;52.398;7.024;2023-02-26T08:25:26;102203.47;;;2.51;82.73
58534;BME280;44109;52.398;7.024;2023-02-26T08:27:54;102210.25;;;3.08;88.23
58534;BME280;44109;52.398;7.024;2023-02-26T08:30:23;102219.41;;;2.39;80.49
58534;BME280;44109;52.398;7.024;2023-02-26T08:32:51;102183.78;;;2.93;93.19
58534;BME280;44109;52.398;7.024;2023-02-26T08:35:19;102221.78;;;4.26;96.42
58534;BME280;44109;52.398;7.024;2023-02-26T08:37:46;102228.63;;;4.53;98.05
58534;BME280;44109;52.398;7.024;2023-02-26T08:40:16;102227.34;;;4.21;78.21
58534;BME280;44109;52.398;7.024;2023-02-26T08:42:43;102217.41;;;4.01;80.32
58534;BME280;44109;52.398;7.024;2023-02-26T08:45:11;102235.88;;;3.33;72.90
58534;BME280;44109;52.398;7.024;2023-02-26T08:47:39;102239.03;;;5.37;100.00
58534;BME280;44109;52.398;7.024;2023-02-26T08:50:10;102242.44;;;5.09;88.07
58534;BME280;44109;52.398;7.024;2023-02-26T08:52:38;102246.53;;;5.12;80.42
58534;BME280;44109;52.398;7.024;2023-02-26T08:55:06;102246.75;;;4.97;74.80
58534;BME280;44109;52.398;7.024;2023-02-26T08:57:36;102251.06;;;6.06;88.26
58534;BME280;44109;52.398;7.024;2023-02-26T09:00:05;102248.34;;;6.33;84.30
58534;BME280;44109;52.398;7.024;2023-02-26T09:02:36;102260.09;;;5.60;65.97
58534;BME280;44109;52.398;7.024;2023-02-26T09:05:04;102264.06;;;5.35;63.50
58534;BME280;44109;52.398;7.024;2023-02-26T09:07:32;102270.06;;;4.99;89.54
58534;BME280;44109;52.398;7.024;2023-02-26T09:10:00;102275.13;;;5.49;67.77
58534;BME280;44109;52.398;7.024;2023-02-26T09:12:28;102272.13;;;6.29;89.54
58534;BME280;44109;52.398;7.024;2023-02-26T09:14:57;102279.16;;;6.35;80.40
58534;BME280;44109;52.398;7.024;2023-02-26T09:17:25;102279.66;;;6.10;80.08
58534;BME280;44109;52.398;7.024;2023-02-26T09:19:53;102282.72;;;5.57;68.14
58534;BME280;44109;52.398;7.024;2023-02-26T09:22:20;102276.84;;;5.64;67.96
58534;BME280;44109;52.398;7.024;2023-02-26T09:24:48;102283.28;;;5.92;71.59
58534;BME280;44109;52.398;7.024;2023-02-26T09:27:16;102283.75;;;6.40;69.69
58534;BME280;44109;52.398;7.024;2023-02-26T09:29:44;102274.97;;;6.10;63.50
58534;BME280;44109;52.398;7.024;2023-02-26T09:32:13;102274.88;;;6.29;60.94
58534;BME280;44109;52.398;7.024;2023-02-26T09:34:40;102284.78;;;6.44;66.10
58534;BME280;44109;52.398;7.024;2023-02-26T09:37:08;102281.91;;;5.89;59.53
58534;BME280;44109;52.398;7.024;2023-02-26T09:39:36;102286.47;;;5.80;60.39
58534;BME280;44109;52.398;7.024;2023-02-26T09:42:10;102276.34;;;5.43;59.75
58534;BME280;44109;52.398;7.024;2023-02-26T09:44:48;102296.16;;;5.77;58.05
58534;BME280;44109;52.398;7.024;2023-02-26T09:47:22;102297.06;;;5.54;59.76
58534;BME280;44109;52.398;7.024;2023-02-26T09:49:57;102295.59;;;5.43;59.61
58534;BME280;44109;52.398;7.024;2023-02-26T09:52:34;102299.41;;;5.28;53.11
58534;BME280;44109;52.398;7.024;2023-02-26T09:55:12;102302.81;;;5.01;53.98
58534;BME280;44109;52.398;7.024;2023-02-26T09:57:47;102308.06;;;4.25;52.60
58534;BME280;44109;52.398;7.024;2023-02-26T10:00:23;102295.75;;;3.60;55.79
58534;BME280;44109;52.398;7.024;2023-02-26T10:03:10;102307.97;;;3.77;57.84
58534;BME280;44109;52.398;7.024;2023-02-26T10:05:56;102304.63;;;4.39;57.74
58534;BME280;44109;52.398;7.024;2023-02-26T10:08:45;102303.47;;;4.69;61.07
58534;BME280;44109;52.398;7.024;2023-02-26T10:11:23;102320.22;;;5.15;57.57
58534;BME280;44109;52.398;7.024;2023-02-26T10:14:01;102285.31;;;4.68;55.52
58534;BME280;44109;52.398;7.024;2023-02-26T10:16:38;102307.25;;;4.97;57.07
58534;BME280;44109;52.398;7.024;2023-02-26T10:19:15;102302.31;;;5.37;57.25
58534;BME280;44109;52.398;7.024;2023-02-26T10:21:48;102310.03;;;5.34;53.64
58534;BME280;44109;52.398;7.024;2023-02-26T10:24:22;102319.00;;;5.21;53.56
58534;BME280;44109;52.398;7.024;2023-02-26T10:26:54;102320.56;;;5.08;58.31
58534;BME280;44109;52.398;7.024;2023-02-26T10:29:33;102320.69;;;5.41;55.38
58534;BME280;44109;52.398;7.024;2023-02-26T10:32:18;102298.94;;;5.40;53.67
58534;BME280;44109;52.398;7.024;2023-02-26T10:34:55;102318.13;;;5.64;54.69
58534;BME280;44109;52.398;7.024;2023-02-26T10:37:36;102330.84;;;5.78;56.49
58534;BME280;44109;52.398;7.024;2023-02-26T10:40:14;102325.28;;;6.30;55.58
58534;BME280;44109;52.398;7.024;2023-02-26T10:42:47;102334.06;;;6.18;55.11
58534;BME280;44109;52.398;7.024;2023-02-26T10:45:33;102331.00;;;5.30;51.63
58534;BME280;44109;52.398;7.024;2023-02-26T10:48:24;102344.31;;;5.23;54.56
58534;BME280;44109;52.398;7.024;2023-02-26T10:51:12;102328.44;;;6.09;52.46
58534;BME280;44109;52.398;7.024;2023-02-26T10:53:43;102338.66;;;5.33;54.65
58534;BME280;44109;52.398;7.024;2023-02-26T10:56:19;102344.50;;;6.49;56.37
58534;BME280;44109;52.398;7.024;2023-02-26T10:58:51;102336.47;;;7.07;54.78
58534;BME280;44109;52.398;7.024;2023-02-26T11:01:22;102340.88;;;5.88;51.11
58534;BME280;44109;52.398;7.024;2023-02-26T11:03:56;102327.50;;;5.63;52.99
58534;BME280;44109;52.398;7.024;2023-02-26T11:06:32;102338.97;;;5.51;53.20
58534;BME280;44109;52.398;7.024;2023-02-26T11:09:06;102346.81;;;5.76;54.87
58534;BME280;44109;52.398;7.024;2023-02-26T11:11:50;102358.75;;;5.53;50.34
58534;BME280;44109;52.398;7.024;2023-02-26T11:14:20;102277.59;;;4.51;50.10
58534;BME280;44109;52.398;7.024;2023-02-26T11:16:51;102349.72;;;4.62;49.49
58534;BME280;44109;52.398;7.024;2023-02-26T11:19:25;102351.38;;;5.29;52.93
58534;BME280;44109;52.398;7.024;2023-02-26T11:21:57;102331.84;;;5.50;50.64
58534;BME280;44109;52.398;7.024;2023-02-26T11:24:29;102351.03;;;5.55;50.31
58534;BME280;44109;52.398;7.024;2023-02-26T11:27:02;102352.88;;;5.41;51.26
58534;BME280;44109;52.398;7.024;2023-02-26T11:29:35;102323.94;;;5.24;49.98
58534;BME280;44109;52.398;7.024;2023-02-26T11:32:05;102346.63;;;5.73;52.60
58534;BME280;44109;52.398;7.024;2023-02-26T11:34:33;102346.63;;;5.35;51.67
58534;BME280;44109;52.398;7.024;2023-02-26T11:37:04;102333.53;;;5.65;51.67
58534;BME280;44109;52.398;7.024;2023-02-26T11:39:34;102340.22;;;5.77;53.30
58534;BME280;44109;52.398;7.024;2023-02-26T11:42:04;102342.69;;;5.60;51.43
58534;BME280;44109;52.398;7.024;2023-02-26T11:44:35;102341.00;;;5.45;52.11
58534;BME280;44109;52.398;7.024;2023-02-26T11:47:09;102344.25;;;5.28;53.29
58534;BME280;44109;52.398;7.024;2023-02-26T11:49:42;102337.47;;;5.77;56.29
58534;BME280;44109;52.398;7.024;2023-02-26T11:52:22;102334.41;;;4.79;53.46
58534;BME280;44109;52.398;7.024;2023-02-26T11:54:59;102341.91;;;4.50;54.14
58534;BME280;44109;52.398;7.024;2023-02-26T11:57:29;102344.81;;;4.58;53.98
58534;BME280;44109;52.398;7.024;2023-02-26T12:00:00;102341.53;;;4.80;53.18
58534;BME280;44109;52.398;7.024;2023-02-26T12:02:44;102336.91;;;4.52;53.36
58534;BME280;44109;52.398;7.024;2023-02-26T12:05:15;102345.88;;;4.87;52.94
58534;BME280;44109;52.398;7.024;2023-02-26T12:07:45;102339.09;;;4.55;52.13
58534;BME280;44109;52.398;7.024;2023-02-26T12:10:16;102347.72;;;4.43;53.72
58534;BME280;44109;52.398;7.024;2023-02-26T12:13:01;102345.13;;;4.28;54.24
58534;BME280;44109;52.398;7.024;2023-02-26T12:15:45;102339.31;;;4.82;55.56
58534;BME280;44109;52.398;7.024;2023-02-26T12:18:32;102301.75;;;4.49;53.81
58534;BME280;44109;52.398;7.024;2023-02-26T12:21:17;102336.03;;;4.56;53.17
58534;BME280;44109;52.398;7.024;2023-02-26T12:24:13;102336.22;;;4.41;54.09
58534;BME280;44109;52.398;7.024;2023-02-26T12:26:58;102332.41;;;4.61;51.60
58534;BME280;44109;52.398;7.024;2023-02-26T12:29:41;102294.69;;;4.19;51.23
58534;BME280;44109;52.398;7.024;2023-02-26T12:32:28;102320.19;;;4.72;52.62
58534;BME280;44109;52.398;7.024;2023-02-26T12:35:24;102329.94;;;5.07;52.17
58534;BME280;44109;52.398;7.024;2023-02-26T12:38:19;102335.81;;;5.20;53.80
58534;BME280;44109;52.398;7.024;2023-02-26T12:41:18;102329.75;;;5.42;51.53
58534;BME280;44109;52.398;7.024;2023-02-26T12:43:56;102332.72;;;5.45;51.20
58534;BME280;44109;52.398;7.024;2023-02-26T12:46:47;102337.69;;;5.43;50.47
58534;BME280;44109;52.398;7.024;2023-02-26T12:49:33;102339.69;;;5.19;50.51
58534;BME280;44109;52.398;7.024;2023-02-26T12:52:40;102341.66;;;4.94;50.85
58534;BME280;44109;52.398;7.024;2023-02-26T12:55:33;102340.28;;;5.34;51.38
58534;BME280;44109;52.398;7.024;2023-02-26T12:58:25;102333.63;;;5.41;50.79
58534;BME280;44109;52.398;7.024;2023-02-26T13:01:21;102335.16;;;5.09;49.91
58534;BME280;44109;52.398;7.024;2023-02-26T13:04:13;102345.06;;;5.48;49.78
58534;BME280;44109;52.398;7.024;2023-02-26T13:07:11;102344.56;;;5.46;49.16
58534;BME280;44109;52.398;7.024;2023-02-26T13:09:56;102353.53;;;5.70;50.31
58534;BME280;44109;52.398;7.024;2023-02-26T13:12:40;102343.94;;;5.68;49.97
58534;BME280;44109;52.398;7.024;2023-02-26T13:15:38;102352.34;;;5.76;51.20
58534;BME280;44109;52.398;7.024;2023-02-26T13:18:28;102348.53;;;5.91;50.73
58534;BME280;44109;52.398;7.024;2023-02-26T13:21:07;102329.09;;;5.50;51.42
58534;BME280;44109;52.398;7.024;2023-02-26T13:23:45;102333.66;;;5.35;50.27
58534;BME280;44109;52.398;7.024;2023-02-26T13:26:18;102352.69;;;5.89;51.02